Time;durP1;ratioP1;P1;durP2;ratioP2;P2;SDS_P1;SDS_P2;PMS_P1;PMS_P2;Temp;Humidity;BMP_temperature;BMP_pressure;BME280_temperature;BME280_humidity;BME280_pressure;Samples;Min_cycle;Max_cycle;Signal;HPM_P1;HPM_P2
2022/05/19 00:01:04;;;;;;;0.50;0.50;;;;;;;;;;1783880;79;26316;-50
2022/05/19 00:03:33;;;;;;;0.70;0.70;;;;;;;;;;1798390;79;26307;-54
2022/05/19 00:06:00;;;;;;;0.60;0.60;;;;;;;;;;1799588;79;26290;-53
2022/05/19 00:08:28;;;;;;;0.60;0.60;;;;;;;;;;1810418;78;26349;-50
2022/05/19 00:10:57;;;;;;;0.80;0.80;;;;;;;;;;1801293;78;26564;-53
2022/05/19 00:13:26;;;;;;;0.70;0.70;;;;;;;;;;1808593;79;26353;-51
2022/05/19 00:15:53;;;;;;;0.60;0.60;;;;;;;;;;1799418;79;26381;-52
2022/05/19 00:18:20;;;;;;;0.60;0.60;;;;;;;;;;1814004;79;26292;-54
2022/05/19 00:20:48;;;;;;;0.75;0.75;;;;;;;;;;1803982;79;26341;-56
2022/05/19 00:23:15;;;;;;;0.60;0.60;;;;;;;;;;1808795;79;26821;-47
2022/05/19 00:25:43;;;;;;;0.50;0.50;;;;;;;;;;1800072;79;26318;-51
2022/05/19 00:28:10;;;;;;;0.60;0.60;;;;;;;;;;1806225;79;26358;-52
2022/05/19 00:30:38;;;;;;;0.78;0.78;;;;;;;;;;1796109;79;26302;-50
2022/05/19 00:33:05;;;;;;;0.70;0.70;;;;;;;;;;1847306;76;26273;-52
2022/05/19 00:35:32;;;;;;;0.62;0.62;;;;;;;;;;1845361;77;26292;-53
2022/05/19 00:38:00;;;;;;;0.50;0.50;;;;;;;;;;1802092;79;26774;-56
2022/05/19 00:40:27;;;;;;;0.55;0.53;;;;;;;;;;1808775;78;26874;-56
2022/05/19 00:42:54;;;;;;;0.60;0.60;;;;;;;;;;1794183;79;26299;-53
2022/05/19 00:45:23;;;;;;;0.60;0.60;;;;;;;;;;1818703;78;26284;-51
2022/05/19 00:47:52;;;;;;;0.57;0.57;;;;;;;;;;1812773;79;26275;-50
2022/05/19 00:50:37;;;;;;;0.60;0.60;;;;;;;;;;1810696;79;26287;-53
2022/05/19 00:53:12;;;;;;;0.55;0.55;;;;;;;;;;1814024;79;26236;-49
2022/05/19 00:55:41;;;;;;;0.53;0.53;;;;;;;;;;1770462;79;26319;-51
2022/05/19 00:58:10;;;;;;;0.62;0.62;;;;;;;;;;1810871;79;26279;-52
2022/05/19 01:00:38;;;;;;;0.60;0.60;;;;;;;;;;1818946;78;26326;-48
2022/05/19 01:03:05;;;;;;;0.68;0.68;;;;;;;;;;1806409;79;27534;-50
2022/05/19 01:05:34;;;;;;;0.57;0.57;;;;;;;;;;1770328;80;26267;-52
2022/05/19 01:08:03;;;;;;;0.60;0.60;;;;;;;;;;1825666;77;26255;-53
2022/05/19 01:10:30;;;;;;;0.70;0.70;;;;;;;;;;1824879;77;26317;-53
2022/05/19 01:12:58;;;;;;;0.60;0.60;;;;;;;;;;1825981;78;26282;-50
2022/05/19 01:15:26;;;;;;;0.60;0.60;;;;;;;;;;1825339;78;26314;-51
2022/05/19 01:17:54;;;;;;;2.25;0.68;;;;;;;;;;1825054;78;26275;-54
2022/05/19 01:20:23;;;;;;;0.55;0.55;;;;;;;;;;1826559;78;26281;-55
2022/05/19 01:22:58;;;;;;;0.55;0.55;;;;;;;;;;1832903;78;26274;-50
2022/05/19 01:25:43;;;;;;;0.50;0.50;;;;;;;;;;1815907;78;26286;-52
2022/05/19 01:28:10;;;;;;;0.50;0.50;;;;;;;;;;1812139;78;26310;-50
2022/05/19 01:30:38;;;;;;;0.70;0.70;;;;;;;;;;1825071;78;26317;-53
2022/05/19 01:33:05;;;;;;;0.60;0.60;;;;;;;;;;1827676;78;26904;-52
2022/05/19 01:35:33;;;;;;;0.55;0.55;;;;;;;;;;1825804;78;26310;-50
2022/05/19 01:38:02;;;;;;;0.60;0.60;;;;;;;;;;1825423;78;26277;-51
2022/05/19 01:40:37;;;;;;;0.60;0.60;;;;;;;;;;1825665;78;26740;-50
2022/05/19 01:43:06;;;;;;;0.60;0.60;;;;;;;;;;1816872;78;26310;-53
2022/05/19 01:45:47;;;;;;;0.60;0.60;;;;;;;;;;1824407;77;26762;-50
2022/05/19 01:48:16;;;;;;;0.55;0.55;;;;;;;;;;1792760;80;26857;-50
2022/05/19 01:50:47;;;;;;;0.60;0.60;;;;;;;;;;1822014;78;26780;-53
2022/05/19 01:53:22;;;;;;;0.60;0.60;;;;;;;;;;1787311;80;26298;-47
2022/05/19 01:55:51;;;;;;;0.60;0.60;;;;;;;;;;1812686;78;26353;-52
2022/05/19 01:58:31;;;;;;;1.77;0.70;;;;;;;;;;1823579;78;26282;-46
2022/05/19 02:01:00;;;;;;;1.37;0.57;;;;;;;;;;1805517;78;26268;-49
2022/05/19 02:03:35;;;;;;;0.60;0.60;;;;;;;;;;1802832;78;26290;-56
2022/05/19 02:06:06;;;;;;;0.50;0.50;;;;;;;;;;1798965;79;26767;-50
2022/05/19 02:08:36;;;;;;;0.50;0.50;;;;;;;;;;1807236;78;26318;-55
2022/05/19 02:11:04;;;;;;;0.60;0.60;;;;;;;;;;1816551;78;26298;-54
2022/05/19 02:13:33;;;;;;;0.60;0.60;;;;;;;;;;1797061;79;26819;-50
2022/05/19 02:16:02;;;;;;;0.55;0.55;;;;;;;;;;1811893;79;26309;-50
2022/05/19 02:18:29;;;;;;;0.65;0.65;;;;;;;;;;1813652;79;26373;-48
2022/05/19 02:20:58;;;;;;;0.60;0.60;;;;;;;;;;1811233;79;26637;-48
2022/05/19 02:23:26;;;;;;;0.70;0.70;;;;;;;;;;1813952;79;27195;-50
2022/05/19 02:25:54;;;;;;;0.60;0.60;;;;;;;;;;1808071;78;26472;-48
2022/05/19 02:28:32;;;;;;;0.60;0.60;;;;;;;;;;1805124;79;26296;-52
2022/05/19 02:31:00;;;;;;;0.60;0.60;;;;;;;;;;1814722;79;26819;-50
2022/05/19 02:33:27;;;;;;;0.57;0.57;;;;;;;;;;1848119;77;26276;-51
2022/05/19 02:35:55;;;;;;;0.72;0.70;;;;;;;;;;1847915;77;26669;-49
2022/05/19 02:38:24;;;;;;;0.60;0.60;;;;;;;;;;1799493;77;26314;-52
2022/05/19 02:40:52;;;;;;;0.70;0.70;;;;;;;;;;1846471;77;26349;-48
2022/05/19 02:43:19;;;;;;;0.50;0.50;;;;;;;;;;1810799;79;26373;-46
2022/05/19 02:45:47;;;;;;;0.62;0.62;;;;;;;;;;1810216;79;25932;-52
2022/05/19 02:48:16;;;;;;;0.70;0.70;;;;;;;;;;1803108;78;26314;-52
2022/05/19 02:50:44;;;;;;;0.75;0.75;;;;;;;;;;1851847;77;26260;-52
2022/05/19 02:53:12;;;;;;;0.60;0.60;;;;;;;;;;1813998;79;26813;-54
2022/05/19 02:55:40;;;;;;;0.60;0.60;;;;;;;;;;1813659;79;26336;-52
2022/05/19 02:58:08;;;;;;;0.78;0.78;;;;;;;;;;1813707;79;26299;-54
2022/05/19 03:00:35;;;;;;;0.50;0.50;;;;;;;;;;1812870;78;26806;-52
2022/05/19 03:03:03;;;;;;;0.70;0.70;;;;;;;;;;1800346;79;26344;-49
2022/05/19 03:05:32;;;;;;;0.75;0.75;;;;;;;;;;1799427;79;26365;-48
2022/05/19 03:08:00;;;;;;;0.60;0.60;;;;;;;;;;1802944;78;26236;-49
2022/05/19 03:10:27;;;;;;;0.70;0.70;;;;;;;;;;1800784;78;26303;-54
2022/05/19 03:12:56;;;;;;;0.70;0.70;;;;;;;;;;1817782;79;26344;-48
2022/05/19 03:15:23;;;;;;;0.80;0.60;;;;;;;;;;1813403;79;26774;-50
2022/05/19 03:17:51;;;;;;;0.60;0.60;;;;;;;;;;1812262;79;26266;-50
2022/05/19 03:20:18;;;;;;;0.80;0.80;;;;;;;;;;1813648;78;26321;-46
2022/05/19 03:22:45;;;;;;;0.60;0.60;;;;;;;;;;1813665;79;26298;-52
2022/05/19 03:25:13;;;;;;;0.62;0.62;;;;;;;;;;1848472;77;26394;-52
2022/05/19 03:27:41;;;;;;;0.70;0.70;;;;;;;;;;1848263;77;26770;-47
2022/05/19 03:30:10;;;;;;;0.70;0.70;;;;;;;;;;1811838;79;26424;-50
2022/05/19 03:32:37;;;;;;;0.70;0.70;;;;;;;;;;1844626;77;26272;-53
2022/05/19 03:35:05;;;;;;;0.68;0.68;;;;;;;;;;1846742;76;26289;-50
2022/05/19 03:37:32;;;;;;;0.80;0.80;;;;;;;;;;1848788;77;26291;-49
2022/05/19 03:39:59;;;;;;;0.70;0.70;;;;;;;;;;1807148;79;26316;-47
2022/05/19 03:42:27;;;;;;;0.80;0.80;;;;;;;;;;1814051;78;26321;-48
2022/05/19 03:44:54;;;;;;;0.70;0.70;;;;;;;;;;1811624;79;26373;-50
2022/05/19 03:47:21;;;;;;;0.65;0.65;;;;;;;;;;1808910;79;26358;-53
2022/05/19 03:49:48;;;;;;;1.30;0.60;;;;;;;;;;1844612;77;26370;-50
2022/05/19 03:52:16;;;;;;;0.80;0.80;;;;;;;;;;1850064;76;26370;-53
2022/05/19 03:54:44;;;;;;;0.70;0.70;;;;;;;;;;1813141;78;26306;-47
2022/05/19 03:57:13;;;;;;;0.70;0.70;;;;;;;;;;1812672;78;26608;-53
2022/05/19 03:59:40;;;;;;;0.70;0.70;;;;;;;;;;1808524;79;26579;-52
2022/05/19 04:02:08;;;;;;;0.72;0.72;;;;;;;;;;1813451;79;26405;-52
2022/05/19 04:04:35;;;;;;;0.70;0.70;;;;;;;;;;1805445;79;27389;-48
2022/05/19 04:07:03;;;;;;;1.70;0.90;;;;;;;;;;1800248;78;26311;-50
2022/05/19 04:09:31;;;;;;;0.95;0.80;;;;;;;;;;1846464;76;26357;-51
2022/05/19 04:11:58;;;;;;;2.52;0.90;;;;;;;;;;1792906;79;26299;-51
2022/05/19 04:14:27;;;;;;;0.70;0.70;;;;;;;;;;1813915;79;26334;-53
2022/05/19 04:16:54;;;;;;;1.30;0.70;;;;;;;;;;1809145;79;26322;-50
2022/05/19 04:19:22;;;;;;;0.72;0.72;;;;;;;;;;1813859;79;26286;-49
2022/05/19 04:21:49;;;;;;;1.92;0.60;;;;;;;;;;1815052;78;26378;-52
2022/05/19 04:24:16;;;;;;;0.80;0.80;;;;;;;;;;1810275;79;26341;-51
2022/05/19 04:26:44;;;;;;;0.70;0.70;;;;;;;;;;1811714;79;26303;-47
2022/05/19 04:29:11;;;;;;;0.80;0.80;;;;;;;;;;1813186;79;26752;-47
2022/05/19 04:31:38;;;;;;;0.85;0.85;;;;;;;;;;1814264;78;25901;-51
2022/05/19 04:34:06;;;;;;;1.32;0.70;;;;;;;;;;1808945;77;26296;-52
2022/05/19 04:36:33;;;;;;;0.88;0.88;;;;;;;;;;1808830;78;26340;-89
2022/05/19 04:39:01;;;;;;;2.85;0.80;;;;;;;;;;1821421;77;26840;-49
2022/05/19 04:41:28;;;;;;;1.27;1.17;;;;;;;;;;1802252;78;26841;-53
2022/05/19 04:43:55;;;;;;;0.70;0.70;;;;;;;;;;1853544;76;26865;-49
2022/05/19 04:46:23;;;;;;;0.75;0.75;;;;;;;;;;1847745;77;26248;-53
2022/05/19 04:48:50;;;;;;;0.80;0.80;;;;;;;;;;1812947;78;26380;-49
2022/05/19 04:51:17;;;;;;;0.80;0.80;;;;;;;;;;1811288;78;26278;-50
2022/05/19 04:53:44;;;;;;;3.80;0.70;;;;;;;;;;1809690;79;26259;-51
2022/05/19 04:56:11;;;;;;;0.90;0.90;;;;;;;;;;1807262;79;26358;-49
2022/05/19 04:58:39;;;;;;;0.57;0.57;;;;;;;;;;1811923;79;26279;-49
2022/05/19 05:01:06;;;;;;;1.65;0.80;;;;;;;;;;1811132;78;26298;-50
2022/05/19 05:03:33;;;;;;;5.37;0.98;;;;;;;;;;1825603;77;26298;-49
2022/05/19 05:06:01;;;;;;;3.15;0.98;;;;;;;;;;1804239;78;26370;-49
2022/05/19 05:08:28;;;;;;;5.75;1.00;;;;;;;;;;1807055;79;26314;-51
2022/05/19 05:10:55;;;;;;;3.00;1.10;;;;;;;;;;1785985;79;26286;-54
2022/05/19 05:13:23;;;;;;;2.20;1.10;;;;;;;;;;1817278;79;26223;-48
2022/05/19 05:15:50;;;;;;;6.17;1.55;;;;;;;;;;1817546;79;27327;-54
2022/05/19 05:18:18;;;;;;;2.27;0.93;;;;;;;;;;1780758;79;26765;-51
2022/05/19 05:20:46;;;;;;;1.45;1.02;;;;;;;;;;1822191;78;26250;-56
2022/05/19 05:23:13;;;;;;;3.40;1.20;;;;;;;;;;1821685;78;26271;-49
2022/05/19 05:25:41;;;;;;;1.10;0.80;;;;;;;;;;1822002;78;26650;-48
2022/05/19 05:28:09;;;;;;;1.67;0.85;;;;;;;;;;1815580;78;26391;-51
2022/05/19 05:30:36;;;;;;;2.47;1.00;;;;;;;;;;1821780;78;26342;-49
2022/05/19 05:33:06;;;;;;;3.22;1.10;;;;;;;;;;1822141;78;26852;-52
2022/05/19 05:35:33;;;;;;;6.75;1.12;;;;;;;;;;1820009;78;26808;-47
2022/05/19 05:38:02;;;;;;;1.20;1.10;;;;;;;;;;1821104;78;26297;-48
2022/05/19 05:40:29;;;;;;;0.82;0.82;;;;;;;;;;1823909;77;26306;-56
2022/05/19 05:42:56;;;;;;;0.90;0.80;;;;;;;;;;1819415;77;26341;-50
2022/05/19 05:45:24;;;;;;;0.82;0.82;;;;;;;;;;1815135;78;26869;-48
2022/05/19 05:47:51;;;;;;;2.90;0.90;;;;;;;;;;1814910;78;26722;-52
2022/05/19 05:50:18;;;;;;;0.80;0.80;;;;;;;;;;1827050;77;26869;-53
2022/05/19 05:52:46;;;;;;;3.08;1.00;;;;;;;;;;1821840;78;26716;-57
2022/05/19 05:55:13;;;;;;;0.85;0.85;;;;;;;;;;1810611;77;26330;-50
2022/05/19 05:57:40;;;;;;;0.90;0.90;;;;;;;;;;1827035;77;26217;-49
2022/05/19 06:00:08;;;;;;;1.07;1.00;;;;;;;;;;1791117;78;26293;-52
2022/05/19 06:02:36;;;;;;;1.15;0.93;;;;;;;;;;1815022;78;27651;-53
2022/05/19 06:05:04;;;;;;;0.80;0.80;;;;;;;;;;1786714;79;26428;-51
2022/05/19 06:07:31;;;;;;;0.90;0.90;;;;;;;;;;1794002;78;26515;-51
2022/05/19 06:09:59;;;;;;;0.95;0.88;;;;;;;;;;1820155;77;26292;-49
2022/05/19 06:12:27;;;;;;;3.08;0.82;;;;;;;;;;1779672;79;26765;-53
2022/05/19 06:14:56;;;;;;;2.37;1.07;;;;;;;;;;1805926;77;26291;-46
2022/05/19 06:17:24;;;;;;;1.57;1.10;;;;;;;;;;1813723;79;26275;-46
2022/05/19 06:19:51;;;;;;;2.47;1.00;;;;;;;;;;1810193;78;26348;-50
2022/05/19 06:22:19;;;;;;;1.40;0.93;;;;;;;;;;1815489;77;26279;-47
2022/05/19 06:24:46;;;;;;;1.10;1.00;;;;;;;;;;1808988;78;26299;-53
2022/05/19 06:27:13;;;;;;;0.90;0.90;;;;;;;;;;1816467;77;26343;-50
2022/05/19 06:29:41;;;;;;;0.80;0.80;;;;;;;;;;1810691;78;26220;-52
2022/05/19 06:32:09;;;;;;;1.60;0.80;;;;;;;;;;1800658;79;26590;-48
2022/05/19 06:34:36;;;;;;;1.12;0.90;;;;;;;;;;1809944;78;26359;-55
2022/05/19 06:37:04;;;;;;;0.90;0.90;;;;;;;;;;1818899;78;27538;-48
2022/05/19 06:39:32;;;;;;;0.80;0.80;;;;;;;;;;1808164;78;26302;-50
2022/05/19 06:42:02;;;;;;;0.80;0.80;;;;;;;;;;1801388;78;26291;-49
2022/05/19 06:44:31;;;;;;;1.10;1.10;;;;;;;;;;1787535;79;26384;-49
2022/05/19 06:47:00;;;;;;;0.95;0.95;;;;;;;;;;1788356;79;26806;-48
2022/05/19 06:49:28;;;;;;;0.90;0.90;;;;;;;;;;1793718;78;26629;-48
2022/05/19 06:51:56;;;;;;;0.93;0.90;;;;;;;;;;1800151;79;26361;-52
2022/05/19 06:54:23;;;;;;;0.80;0.80;;;;;;;;;;1799336;78;26677;-61
2022/05/19 06:56:50;;;;;;;0.90;0.90;;;;;;;;;;1847237;77;26352;-61
2022/05/19 06:59:18;;;;;;;0.90;0.90;;;;;;;;;;1848201;76;26265;-58
2022/05/19 07:01:47;;;;;;;1.60;0.80;;;;;;;;;;1832993;77;26274;-61
2022/05/19 07:04:15;;;;;;;0.90;0.90;;;;;;;;;;1820417;78;26400;-56
2022/05/19 07:06:43;;;;;;;1.85;0.98;;;;;;;;;;1817231;78;26274;-51
2022/05/19 07:09:11;;;;;;;0.90;0.80;;;;;;;;;;1821852;77;26267;-50
2022/05/19 07:11:38;;;;;;;0.72;0.72;;;;;;;;;;1818797;78;26860;-47
2022/05/19 07:14:07;;;;;;;0.90;0.90;;;;;;;;;;1822223;78;26733;-57
2022/05/19 07:16:35;;;;;;;0.90;0.90;;;;;;;;;;1820288;78;26308;-57
2022/05/19 07:21:48;;;;;;;0.80;0.80;;;;;;;;;;1824956;78;26402;-49
2022/05/19 07:24:16;;;;;;;0.80;0.80;;;;;;;;;;1821960;78;26394;-49
2022/05/19 07:26:45;;;;;;;0.90;0.90;;;;;;;;;;1823191;77;26283;-50
2022/05/19 07:29:12;;;;;;;1.05;0.80;;;;;;;;;;1820312;78;26908;-54
2022/05/19 07:31:39;;;;;;;0.80;0.80;;;;;;;;;;1808075;78;26654;-46
2022/05/19 07:34:07;;;;;;;0.80;0.80;;;;;;;;;;1813282;77;28371;-52
2022/05/19 07:36:35;;;;;;;0.70;0.70;;;;;;;;;;1785515;79;27683;-54
2022/05/19 07:39:03;;;;;;;0.90;0.90;;;;;;;;;;1786139;79;26355;-53
2022/05/19 07:41:31;;;;;;;0.80;0.80;;;;;;;;;;1826038;78;26616;-52
2022/05/19 07:43:59;;;;;;;0.98;0.88;;;;;;;;;;1818061;78;28395;-56
2022/05/19 07:46:27;;;;;;;0.85;0.85;;;;;;;;;;1824832;78;26776;-55
2022/05/19 07:48:55;;;;;;;0.80;0.80;;;;;;;;;;1821364;78;26369;-50
2022/05/19 07:51:24;;;;;;;0.72;0.72;;;;;;;;;;1801352;78;27382;-47
2022/05/19 07:53:52;;;;;;;0.80;0.80;;;;;;;;;;1786394;79;26664;-47
2022/05/19 07:56:19;;;;;;;1.82;0.90;;;;;;;;;;1791578;79;26247;-51
2022/05/19 07:58:47;;;;;;;0.80;0.80;;;;;;;;;;1802461;78;26775;-51
2022/05/19 08:01:16;;;;;;;1.65;0.70;;;;;;;;;;1796521;79;26308;-49
2022/05/19 08:03:44;;;;;;;1.30;0.90;;;;;;;;;;1771922;80;29034;-53
2022/05/19 08:06:11;;;;;;;0.80;0.80;;;;;;;;;;1767873;80;26341;-53
2022/05/19 08:08:39;;;;;;;0.78;0.78;;;;;;;;;;1783284;80;26376;-47
2022/05/19 08:11:07;;;;;;;0.80;0.80;;;;;;;;;;1779588;79;26697;-47
2022/05/19 08:16:19;;;;;;;0.82;0.82;;;;;;;;;;1767681;80;26415;-49
2022/05/19 08:18:46;;;;;;;0.80;0.80;;;;;;;;;;1761035;80;26284;-47
2022/05/19 08:21:14;;;;;;;0.98;0.90;;;;;;;;;;1789387;80;26283;-47
2022/05/19 08:23:43;;;;;;;0.90;0.90;;;;;;;;;;1780004;79;27246;-59
2022/05/19 08:26:10;;;;;;;0.70;0.70;;;;;;;;;;1778232;79;26778;-52
2022/05/19 08:28:39;;;;;;;0.85;0.85;;;;;;;;;;1781629;80;26884;-54
2022/05/19 08:31:13;;;;;;;0.90;0.90;;;;;;;;;;1785252;80;26294;-51
2022/05/19 08:33:42;;;;;;;0.80;0.80;;;;;;;;;;1777278;79;26305;-51
2022/05/19 08:36:10;;;;;;;0.88;0.88;;;;;;;;;;1786942;79;26312;-47
2022/05/19 08:38:38;;;;;;;0.80;0.70;;;;;;;;;;1787318;80;27014;-44
2022/05/19 08:41:09;;;;;;;0.80;0.80;;;;;;;;;;1786678;79;26404;-46
2022/05/19 08:43:44;;;;;;;0.90;0.90;;;;;;;;;;1783930;80;26306;-49
2022/05/19 08:46:13;;;;;;;0.80;0.80;;;;;;;;;;1758028;81;26769;-49
2022/05/19 08:48:41;;;;;;;0.88;0.88;;;;;;;;;;1786799;79;26840;-55
2022/05/19 08:51:08;;;;;;;0.80;0.80;;;;;;;;;;1788051;80;26356;-52
2022/05/19 08:53:37;;;;;;;0.70;0.70;;;;;;;;;;1780626;79;26774;-46
2022/05/19 08:56:06;;;;;;;0.80;0.80;;;;;;;;;;1776029;80;26800;-51
2022/05/19 08:58:35;;;;;;;0.80;0.80;;;;;;;;;;1776861;79;26383;-44
2022/05/19 09:01:04;;;;;;;0.80;0.80;;;;;;;;;;1783252;79;26294;-49
2022/05/19 09:03:33;;;;;;;0.98;0.98;;;;;;;;;;1784835;79;26807;-43
2022/05/19 09:06:19;;;;;;;0.72;0.70;;;;;;;;;;1805586;79;26386;-46
2022/05/19 09:08:50;;;;;;;0.80;0.80;;;;;;;;;;1847167;77;26354;-46
2022/05/19 09:11:19;;;;;;;0.90;0.90;;;;;;;;;;1809251;79;26347;-47
2022/05/19 09:13:55;;;;;;;1.47;0.80;;;;;;;;;;1801962;79;26266;-53
2022/05/19 09:16:21;;;;;;;0.70;0.70;;;;;;;;;;1802163;79;26244;-56
2022/05/19 09:18:50;;;;;;;0.80;0.80;;;;;;;;;;1809194;78;26264;-54
2022/05/19 09:21:18;;;;;;;0.80;0.80;;;;;;;;;;1813203;78;26304;-52
2022/05/19 09:23:45;;;;;;;0.70;0.70;;;;;;;;;;1845997;76;26239;-47
2022/05/19 09:26:26;;;;;;;0.70;0.70;;;;;;;;;;1808783;79;26283;-58
2022/05/19 09:28:59;;;;;;;1.30;0.72;;;;;;;;;;1837044;77;26745;-56
2022/05/19 09:31:34;;;;;;;0.80;0.80;;;;;;;;;;1811578;79;26898;-51
2022/05/19 09:34:01;;;;;;;1.07;0.72;;;;;;;;;;1814608;78;26265;-47
2022/05/19 09:36:28;;;;;;;0.70;0.70;;;;;;;;;;1814050;78;26369;-51
2022/05/19 09:39:00;;;;;;;0.80;0.80;;;;;;;;;;1808451;78;26243;-48
2022/05/19 09:41:30;;;;;;;0.90;0.90;;;;;;;;;;1842566;77;26684;-53
2022/05/19 09:43:58;;;;;;;0.72;0.72;;;;;;;;;;1844483;77;26271;-58
2022/05/19 09:46:27;;;;;;;0.90;0.90;;;;;;;;;;1812623;78;26373;-59
2022/05/19 09:49:02;;;;;;;0.95;0.88;;;;;;;;;;1847055;76;26334;-55
2022/05/19 09:51:33;;;;;;;1.07;1.07;;;;;;;;;;1847879;77;26314;-58
2022/05/19 09:54:01;;;;;;;0.80;0.80;;;;;;;;;;1809425;79;26379;-57
2022/05/19 09:56:30;;;;;;;1.10;0.98;;;;;;;;;;1807143;79;26354;-53
2022/05/19 09:58:59;;;;;;;0.85;0.85;;;;;;;;;;1804836;79;26306;-56
2022/05/19 10:01:28;;;;;;;0.88;0.88;;;;;;;;;;1802582;79;26444;-54
2022/05/19 10:03:58;;;;;;;0.90;0.90;;;;;;;;;;1812985;78;26303;-55
2022/05/19 10:06:27;;;;;;;0.90;0.90;;;;;;;;;;1789840;79;26392;-52
2022/05/19 10:09:02;;;;;;;0.88;0.88;;;;;;;;;;1818622;78;26279;-53
2022/05/19 10:11:30;;;;;;;0.90;0.90;;;;;;;;;;1789521;79;26650;-52
2022/05/19 10:13:59;;;;;;;2.40;0.90;;;;;;;;;;1797698;79;26299;-49
2022/05/19 10:16:33;;;;;;;0.80;0.80;;;;;;;;;;1795046;79;26291;-58
2022/05/19 10:19:05;;;;;;;1.12;0.85;;;;;;;;;;1801735;79;26280;-58
2022/05/19 10:21:40;;;;;;;0.70;0.70;;;;;;;;;;1786876;79;26376;-52
2022/05/19 10:24:26;;;;;;;0.90;0.90;;;;;;;;;;1819668;78;26851;-54
2022/05/19 10:31:02;;;;;;;1.00;1.00;;;;;;;;;;1798516;79;26833;-56
2022/05/19 10:32:25;;;;;;;0.88;0.88;;;;;;;;;;1820871;78;26865;-54
2022/05/19 10:35:12;;;;;;;0.70;0.70;;;;;;;;;;1808970;78;27463;-50
2022/05/19 10:37:53;;;;;;;0.82;0.82;;;;;;;;;;1812471;78;26323;-49
2022/05/19 10:40:34;;;;;;;0.90;0.90;;;;;;;;;;1816283;78;26316;-52
2022/05/19 10:43:18;;;;;;;0.80;0.80;;;;;;;;;;1816775;78;26845;-52
2022/05/19 10:45:48;;;;;;;0.90;0.90;;;;;;;;;;1819068;78;26322;-55
2022/05/19 10:48:26;;;;;;;0.80;0.80;;;;;;;;;;1791095;79;26434;-53
2022/05/19 10:50:55;;;;;;;0.90;0.90;;;;;;;;;;1820138;78;26451;-53
2022/05/19 10:53:27;;;;;;;0.80;0.80;;;;;;;;;;1787698;79;26290;-53
2022/05/19 10:55:59;;;;;;;0.70;0.70;;;;;;;;;;1818591;78;26347;-56
2022/05/19 10:58:44;;;;;;;0.90;0.90;;;;;;;;;;1818890;78;26364;-50
2022/05/19 11:01:28;;;;;;;0.80;0.80;;;;;;;;;;1809009;78;26600;-48
2022/05/19 11:04:00;;;;;;;0.70;0.70;;;;;;;;;;1813044;78;26693;-50
2022/05/19 11:06:44;;;;;;;1.00;0.80;;;;;;;;;;1823611;77;26763;-45
2022/05/19 11:09:16;;;;;;;0.90;0.90;;;;;;;;;;1774919;80;26315;-49
2022/05/19 11:12:02;;;;;;;0.65;0.65;;;;;;;;;;1777460;79;26397;-54
2022/05/19 11:14:34;;;;;;;0.85;0.85;;;;;;;;;;1768728;79;26851;-50
2022/05/19 11:17:03;;;;;;;0.80;0.80;;;;;;;;;;1776247;79;26381;-53
2022/05/19 11:19:32;;;;;;;0.80;0.80;;;;;;;;;;1782053;79;26422;-62
2022/05/19 11:22:00;;;;;;;0.80;0.80;;;;;;;;;;1780903;79;26298;-45
2022/05/19 11:24:29;;;;;;;0.70;0.70;;;;;;;;;;1778821;80;26322;-51
2022/05/19 11:27:10;;;;;;;1.20;0.88;;;;;;;;;;1777331;79;26351;-50
2022/05/19 11:29:48;;;;;;;1.15;0.80;;;;;;;;;;1766271;80;26351;-48
2022/05/19 11:32:20;;;;;;;1.90;0.80;;;;;;;;;;1781440;80;26334;-48
2022/05/19 11:34:52;;;;;;;2.90;0.82;;;;;;;;;;1765685;79;26332;-53
2022/05/19 11:37:27;;;;;;;1.10;0.82;;;;;;;;;;1744621;81;26876;-47
2022/05/19 11:39:55;;;;;;;1.10;1.00;;;;;;;;;;1753037;82;26390;-46
2022/05/19 11:42:42;;;;;;;0.90;0.90;;;;;;;;;;1774317;80;26283;-47
2022/05/19 11:45:12;;;;;;;0.72;0.72;;;;;;;;;;1747024;81;26397;-50
2022/05/19 11:56:02;;;;;;;0.80;0.80;;;;;;;;;;1776454;80;26813;-53
2022/05/19 11:58:31;;;;;;;0.80;0.80;;;;;;;;;;1777162;79;26872;-52
2022/05/19 12:01:00;;;;;;;0.80;0.80;;;;;;;;;;1778651;80;26802;-55
2022/05/19 12:03:43;;;;;;;0.70;0.70;;;;;;;;;;1772929;79;26370;-52
2022/05/19 12:06:16;;;;;;;0.70;0.70;;;;;;;;;;1805051;78;26821;-44
2022/05/19 12:09:03;;;;;;;0.70;0.70;;;;;;;;;;1815070;77;26643;-47
2022/05/19 12:11:48;;;;;;;0.65;0.65;;;;;;;;;;1822251;77;26295;-54
2022/05/19 12:14:17;;;;;;;0.82;0.60;;;;;;;;;;1825078;77;26851;-56
2022/05/19 12:17:03;;;;;;;0.70;0.70;;;;;;;;;;1816252;78;26767;-50
2022/05/19 12:19:38;;;;;;;0.68;0.68;;;;;;;;;;1781982;80;26356;-53
2022/05/19 12:22:06;;;;;;;0.70;0.70;;;;;;;;;;1828899;77;26290;-49
2022/05/19 12:24:38;;;;;;;0.80;0.80;;;;;;;;;;1821386;78;26734;-52
2022/05/19 12:27:13;;;;;;;0.95;0.80;;;;;;;;;;1824575;77;26310;-59
2022/05/19 12:29:43;;;;;;;0.72;0.72;;;;;;;;;;1821388;78;26298;-63
2022/05/19 12:32:12;;;;;;;0.80;0.80;;;;;;;;;;1780319;78;26978;-47
2022/05/19 12:34:47;;;;;;;0.80;0.80;;;;;;;;;;1814761;78;26232;-44
2022/05/19 12:37:33;;;;;;;0.62;0.62;;;;;;;;;;1784956;79;26295;-46
2022/05/19 12:40:18;;;;;;;0.88;0.88;;;;;;;;;;1792823;79;26716;-47
2022/05/19 12:42:45;;;;;;;1.55;0.78;;;;;;;;;;1815904;78;26275;-55
2022/05/19 12:45:17;;;;;;;0.72;0.72;;;;;;;;;;1820027;78;26723;-52
2022/05/19 12:47:58;;;;;;;0.70;0.70;;;;;;;;;;1826439;78;26275;-45
2022/05/19 12:50:27;;;;;;;0.70;0.70;;;;;;;;;;1817730;78;26361;-52
2022/05/19 12:52:56;;;;;;;0.70;0.70;;;;;;;;;;1820022;78;26391;-49
2022/05/19 12:55:28;;;;;;;0.80;0.80;;;;;;;;;;1822992;78;26917;-51
2022/05/19 12:57:57;;;;;;;0.60;0.60;;;;;;;;;;1822157;77;26329;-62
2022/05/19 13:00:26;;;;;;;0.70;0.70;;;;;;;;;;1788336;80;27618;-61
2022/05/19 13:03:04;;;;;;;0.57;0.57;;;;;;;;;;1822014;78;26327;-56
2022/05/19 13:05:33;;;;;;;0.70;0.70;;;;;;;;;;1820932;78;26361;-47
2022/05/19 13:08:02;;;;;;;0.62;0.62;;;;;;;;;;1811611;79;26230;-50
2022/05/19 13:10:40;;;;;;;1.40;0.70;;;;;;;;;;1811421;78;26335;-52
2022/05/19 13:13:12;;;;;;;0.85;0.80;;;;;;;;;;1806459;79;26736;-43
2022/05/19 13:15:56;;;;;;;2.10;0.78;;;;;;;;;;1793290;79;28375;-53
2022/05/19 13:18:25;;;;;;;0.50;0.50;;;;;;;;;;1819312;78;26935;-53
2022/05/19 13:20:54;;;;;;;0.50;0.50;;;;;;;;;;1824411;78;26848;-50
2022/05/19 13:23:23;;;;;;;0.70;0.70;;;;;;;;;;1827529;77;26846;-52
2022/05/19 13:25:52;;;;;;;0.70;0.70;;;;;;;;;;1803800;78;26764;-47
2022/05/19 13:31:06;;;;;;;0.65;0.65;;;;;;;;;;1820446;78;26956;-50
2022/05/19 13:33:40;;;;;;;1.40;0.70;;;;;;;;;;1809386;79;26719;-52
2022/05/19 13:36:09;;;;;;;0.65;0.65;;;;;;;;;;1809336;78;26377;-48
2022/05/19 13:38:37;;;;;;;0.47;0.47;;;;;;;;;;1807929;79;26335;-51
2022/05/19 13:41:06;;;;;;;0.68;0.68;;;;;;;;;;1806096;79;26743;-48
2022/05/19 13:43:38;;;;;;;0.75;0.75;;;;;;;;;;1805169;79;27504;-52
2022/05/19 13:46:10;;;;;;;0.62;0.62;;;;;;;;;;1811250;79;26386;-54
2022/05/19 13:48:42;;;;;;;1.02;0.88;;;;;;;;;;1809561;77;27286;-47
2022/05/19 13:51:11;;;;;;;2.47;0.85;;;;;;;;;;1820596;78;26321;-52
2022/05/19 13:53:40;;;;;;;0.75;0.70;;;;;;;;;;1819508;78;25796;-50
2022/05/19 13:56:07;;;;;;;0.70;0.70;;;;;;;;;;1819449;78;26952;-53
2022/05/19 13:58:35;;;;;;;0.80;0.80;;;;;;;;;;1781596;79;26667;-47
2022/05/19 14:01:03;;;;;;;1.00;1.00;;;;;;;;;;1822056;78;26357;-52
2022/05/19 14:03:31;;;;;;;1.10;1.10;;;;;;;;;;1821116;77;27871;-49
2022/05/19 14:05:58;;;;;;;0.90;0.90;;;;;;;;;;1802954;78;26353;-52
2022/05/19 14:08:26;;;;;;;1.10;1.10;;;;;;;;;;1808979;78;26675;-49
2022/05/19 14:10:55;;;;;;;1.10;1.10;;;;;;;;;;1820522;78;26368;-47
2022/05/19 14:13:24;;;;;;;1.40;1.30;;;;;;;;;;1821486;78;26290;-55
2022/05/19 14:16:08;;;;;;;1.50;1.47;;;;;;;;;;1819593;78;26393;-52
2022/05/19 14:18:37;;;;;;;1.35;1.30;;;;;;;;;;1821977;78;26234;-47
2022/05/19 14:21:06;;;;;;;1.57;1.47;;;;;;;;;;1813546;78;26279;-49
2022/05/19 14:23:51;;;;;;;1.62;1.20;;;;;;;;;;1812384;77;26945;-48
2022/05/19 14:26:33;;;;;;;1.50;1.40;;;;;;;;;;1809054;79;26442;-47
2022/05/19 14:29:03;;;;;;;1.50;1.40;;;;;;;;;;1813181;79;26472;-47
2022/05/19 14:31:32;;;;;;;1.65;1.40;;;;;;;;;;1812619;79;26308;-51
2022/05/19 14:34:03;;;;;;;1.60;1.50;;;;;;;;;;1811464;78;26650;-50
2022/05/19 14:36:35;;;;;;;1.40;1.30;;;;;;;;;;1811752;78;26279;-53
2022/05/19 14:39:07;;;;;;;1.30;1.20;;;;;;;;;;1808845;79;26342;-50
2022/05/19 14:44:25;;;;;;;1.17;1.17;;;;;;;;;;1811666;78;26791;-52
2022/05/19 14:46:54;;;;;;;1.32;1.25;;;;;;;;;;1803647;78;26936;-58
2022/05/19 14:49:22;;;;;;;1.95;1.70;;;;;;;;;;1803339;78;26798;-53
2022/05/19 14:51:50;;;;;;;1.30;1.30;;;;;;;;;;1805290;78;26334;-48
2022/05/19 14:54:19;;;;;;;1.60;1.60;;;;;;;;;;1810599;79;26227;-51
2022/05/19 14:56:52;;;;;;;1.85;1.75;;;;;;;;;;1767929;78;26302;-54
2022/05/19 14:59:27;;;;;;;1.90;1.80;;;;;;;;;;1785059;78;26579;-51
2022/05/19 15:01:55;;;;;;;3.72;1.72;;;;;;;;;;1821008;78;26814;-53
2022/05/19 15:04:22;;;;;;;1.82;1.72;;;;;;;;;;1821910;78;26306;-53
2022/05/19 15:06:49;;;;;;;2.30;2.10;;;;;;;;;;1822400;78;26375;-53
2022/05/19 15:09:17;;;;;;;1.72;1.65;;;;;;;;;;1825238;77;26858;-52
2022/05/19 15:11:44;;;;;;;1.87;1.77;;;;;;;;;;1827535;77;26286;-49
2022/05/19 15:14:12;;;;;;;1.65;1.65;;;;;;;;;;1826135;78;25394;-52
2022/05/19 15:16:40;;;;;;;1.80;1.70;;;;;;;;;;1827365;77;26353;-49
2022/05/19 15:19:08;;;;;;;1.92;1.70;;;;;;;;;;1827131;78;26868;-50
2022/05/19 15:21:36;;;;;;;1.70;1.62;;;;;;;;;;1826890;78;26827;-52